首页
METAR-TAF:

METAR-TAF

机场 :

爱德华·劳伦斯·洛根将军国际机场

波士顿, 马萨诸塞州, 美国

纬度: 42-21-38N, 经度: 071-00-38W, 海拔: 6米

当前天气观测

该预报发布于26分钟前的19:54 UTC
风速17节,风向西北,有时为26节阵风
温度 2°C
湿度 25%
气压 1028 hPa
能見度: 16.1公里
少量云层高于5500英尺
散云层高于13000英尺
多云层高于22000英尺

METAR: KBOS 141954Z 32017G26KT 10SM FEW055 SCT130 BKN220 02/M16 A3035 RMK AO2 PK WND 32028/1908 SLP276 T00171161

时间: 15:20 (20:20 UTC)

预报

该预报发布于2小时和44分钟前的17:36 UTC
预报有效从14日的 18点(UTC)到 15日的 24点(UTC)
风速17节,风向西转西北,有时为30节阵风
能見度: 10公里
少量云层高于6000英尺
从 15日的 0100点(UTC)
风速12节,风向西北,有时为22节阵风
能見度: 10公里
少量云层高于6000英尺
从 15日的 0400点(UTC)
风速9节,风向北转西北
能見度: 10公里
散云层高于25000英尺
从 15日的 1400点(UTC)
风速5节,风向
能見度: 10公里
散云层高于20000英尺
从 15日的 1700点(UTC)
风速4节,风向东北
能見度: 10公里
多云层高于20000英尺
从 15日的 2300点(UTC)
风速6节,风向东转东北
能見度: 10公里
阴天层高于5000英尺

TAF: KBOS 141736Z 1418/1524 29017G30KT P6SM FEW060 FM150100 32012G22KT P6SM FEW060 FM150400 33009KT P6SM SCT250 FM151400 35005KT P6SM SCT200 FM151700 05004KT P6SM BKN200 FM152300 07006KT P6SM OVC050

超过4000个机场的气象观测和天气预报(METAR&TAF报告)。

可查询的气象台以黄色和红色小点在地图上表示。

将鼠标移到小点上方,可查看气象台名称。

然后点击查看天气观测和预报。

如需切换地图:点击带黑十字的绿色按钮放大地图;点击带横线的绿色按钮缩小地图;或者点击绿色箭头查看邻近地区的地图。


METAR-TAF: